Time;durP1;ratioP1;P1;durP2;ratioP2;P2;SDS_P1;SDS_P2;PMS_P1;PMS_P2;Temp;Humidity;BMP_temperature;BMP_pressure;BME280_temperature;BME280_humidity;BME280_pressure;Samples;Min_cycle;Max_cycle;Signal;HPM_P1;HPM_P2
2024/03/21 00:02:11;;;;;;;643.40;596.27;;;9.40;99.90;;;;;;5072722;28;20458;-65
2024/03/21 00:04:37;;;;;;;616.17;570.63;;;9.40;99.90;;;;;;5072583;28;20227;-65
2024/03/21 00:07:05;;;;;;;619.37;573.80;;;9.40;99.90;;;;;;5072192;28;20834;-64
2024/03/21 00:09:32;;;;;;;632.77;585.03;;;9.30;99.90;;;;;;5071505;28;20204;-65
2024/03/21 00:11:59;;;;;;;619.00;571.90;;;9.30;99.90;;;;;;5072593;28;20461;-65
2024/03/21 00:14:25;;;;;;;619.43;571.83;;;9.20;99.90;;;;;;5072118;28;21032;-64
2024/03/21 00:16:52;;;;;;;654.83;604.30;;;9.10;99.90;;;;;;5078775;28;20489;-65
2024/03/21 00:19:18;;;;;;;670.33;618.30;;;9.20;99.90;;;;;;5081904;28;20449;-65
2024/03/21 00:21:45;;;;;;;699.90;645.73;;;9.10;99.90;;;;;;5078037;28;20457;-65
2024/03/21 00:24:12;;;;;;;729.73;675.70;;;9.00;99.90;;;;;;5074170;28;20481;-65
2024/03/21 00:26:40;;;;;;;712.80;659.30;;;8.90;99.90;;;;;;5071999;28;20469;-65
2024/03/21 00:29:05;;;;;;;719.50;663.13;;;8.70;99.90;;;;;;5080681;28;20454;-65
2024/03/21 00:31:32;;;;;;;718.93;661.93;;;8.80;99.90;;;;;;5080020;28;20520;-65
2024/03/21 00:33:58;;;;;;;730.70;673.93;;;8.80;99.90;;;;;;5079766;28;20219;-65
2024/03/21 00:36:25;;;;;;;731.10;674.20;;;8.70;99.90;;;;;;5080756;28;20484;-65
2024/03/21 00:38:52;;;;;;;727.30;669.63;;;8.70;99.90;;;;;;5078770;28;20206;-65
2024/03/21 00:41:20;;;;;;;739.87;680.60;;;8.70;99.90;;;;;;5073682;28;20454;-64
2024/03/21 00:43:46;;;;;;;727.43;667.70;;;8.80;99.90;;;;;;5071855;28;20470;-65
2024/03/21 00:46:13;;;;;;;724.80;665.50;;;8.80;99.90;;;;;;5080480;28;20544;-64
2024/03/21 00:48:39;;;;;;;737.80;679.07;;;8.80;99.90;;;;;;5071680;28;20488;-64
2024/03/21 00:51:06;;;;;;;724.13;667.03;;;8.70;99.90;;;;;;5072028;28;20458;-65
2024/03/21 00:53:32;;;;;;;717.13;660.03;;;8.70;99.90;;;;;;5079812;28;20476;-64
2024/03/21 00:55:58;;;;;;;738.27;681.27;;;8.60;99.90;;;;;;5080472;28;21012;-65
2024/03/21 00:58:25;;;;;;;710.97;653.70;;;8.60;99.90;;;;;;5071865;28;20196;-65
2024/03/21 01:00:52;;;;;;;737.23;678.60;;;8.60;99.90;;;;;;5080596;28;20469;-65
2024/03/21 01:03:18;;;;;;;744.00;684.47;;;8.60;99.90;;;;;;5073800;28;21008;-64
2024/03/21 01:05:51;;;;;;;741.90;683.50;;;8.60;99.90;;;;;;5083562;28;20449;-65
2024/03/21 01:08:17;;;;;;;727.90;668.57;;;8.50;99.90;;;;;;5073200;28;20461;-65
2024/03/21 01:10:48;;;;;;;753.20;693.80;;;8.60;99.90;;;;;;5080153;28;20839;-65
2024/03/21 01:13:14;;;;;;;778.00;718.83;;;8.50;99.90;;;;;;5072009;28;20508;-65
2024/03/21 01:15:42;;;;;;;781.67;720.90;;;8.40;99.90;;;;;;5071719;28;20481;-65
2024/03/21 01:18:07;;;;;;;805.80;744.43;;;8.40;99.90;;;;;;5079160;28;20588;-65
2024/03/21 01:20:35;;;;;;;805.03;741.27;;;8.40;99.90;;;;;;5073117;28;20454;-65
2024/03/21 01:23:02;;;;;;;780.80;718.30;;;8.40;99.90;;;;;;5083841;28;20227;-65
2024/03/21 01:25:28;;;;;;;779.87;718.57;;;8.50;99.90;;;;;;5075657;28;20469;-65
2024/03/21 01:27:54;;;;;;;798.90;737.30;;;8.50;99.90;;;;;;5083595;28;20964;-65
2024/03/21 01:30:21;;;;;;;785.30;722.27;;;8.40;99.90;;;;;;5075292;28;20465;-65
2024/03/21 01:32:48;;;;;;;797.40;734.73;;;8.50;99.90;;;;;;5075009;28;20223;-65
2024/03/21 01:35:15;;;;;;;801.80;738.60;;;8.40;99.90;;;;;;5083671;28;20465;-64
2024/03/21 01:37:41;;;;;;;795.00;732.47;;;8.50;99.90;;;;;;5075068;28;20484;-65
2024/03/21 01:40:10;;;;;;;801.77;739.70;;;8.40;99.90;;;;;;5083621;28;20458;-65
2024/03/21 01:42:37;;;;;;;824.70;760.67;;;8.30;99.90;;;;;;5075269;28;20657;-65
2024/03/21 01:45:05;;;;;;;804.40;741.57;;;8.30;99.90;;;;;;5083422;28;20873;-62
2024/03/21 01:47:31;;;;;;;823.97;760.47;;;8.20;99.90;;;;;;5074719;28;20482;-65
2024/03/21 01:50:00;;;;;;;827.57;762.03;;;8.30;99.90;;;;;;5075020;28;20458;-65
2024/03/21 01:52:26;;;;;;;837.60;771.20;;;8.40;99.90;;;;;;5083488;28;20457;-65
2024/03/21 01:54:54;;;;;;;822.33;757.77;;;8.40;99.90;;;;;;5083448;28;20450;-65
2024/03/21 01:57:20;;;;;;;842.33;777.00;;;8.50;99.90;;;;;;5083015;28;20481;-65
2024/03/21 01:59:47;;;;;;;835.77;770.80;;;8.60;99.90;;;;;;5074982;28;20981;-65
2024/03/21 02:02:13;;;;;;;832.37;766.97;;;8.70;99.90;;;;;;5074921;28;20454;-65
2024/03/21 02:04:40;;;;;;;830.77;765.63;;;8.90;99.90;;;;;;5074899;28;20485;-65
2024/03/21 02:07:09;;;;;;;842.20;776.50;;;9.00;99.90;;;;;;5074817;28;20196;-65
2024/03/21 02:09:35;;;;;;;831.97;766.77;;;9.10;99.90;;;;;;5082165;28;20458;-65
2024/03/21 02:12:06;;;;;;;819.90;758.20;;;9.20;99.90;;;;;;5074740;28;20457;-64
2024/03/21 02:14:35;;;;;;;824.67;762.63;;;9.10;99.90;;;;;;5074326;28;20466;-65
2024/03/21 02:17:01;;;;;;;833.33;772.13;;;9.10;99.90;;;;;;5082339;28;20481;-64
2024/03/21 02:19:29;;;;;;;832.20;770.87;;;9.20;99.90;;;;;;5083127;28;20961;-65
2024/03/21 02:24:42;;;;;;;843.27;777.60;;;9.20;99.90;;;;;;5082828;28;20516;-65
2024/03/21 02:27:08;;;;;;;846.63;782.13;;;9.40;99.90;;;;;;5074133;28;20453;-65
2024/03/21 02:29:35;;;;;;;841.13;773.10;;;9.40;99.90;;;;;;5083018;28;20500;-64
2024/03/21 02:32:00;;;;;;;847.67;778.43;;;9.40;99.90;;;;;;5073586;28;20468;-65
2024/03/21 02:34:27;;;;;;;844.63;776.00;;;9.50;99.90;;;;;;5082467;28;20478;-65
2024/03/21 02:36:53;;;;;;;836.80;768.57;;;9.70;99.90;;;;;;5082187;28;20216;-65
2024/03/21 02:39:22;;;;;;;833.87;767.50;;;9.70;99.90;;;;;;5074017;28;20937;-64
2024/03/21 02:41:49;;;;;;;813.80;750.60;;;9.90;99.90;;;;;;5074315;28;20493;-65
2024/03/21 02:44:15;;;;;;;808.23;746.03;;;9.90;99.90;;;;;;5074161;28;20474;-65
2024/03/21 02:46:42;;;;;;;804.00;744.60;;;9.90;99.90;;;;;;5073661;28;20454;-65
2024/03/21 02:49:07;;;;;;;771.97;712.63;;;10.00;99.90;;;;;;5074805;28;20293;-64
2024/03/21 02:51:34;;;;;;;777.70;720.17;;;10.10;99.90;;;;;;5081556;28;20458;-65
2024/03/21 02:54:00;;;;;;;810.43;751.93;;;10.10;99.90;;;;;;5073778;28;20283;-64
2024/03/21 02:56:30;;;;;;;813.03;755.23;;;10.10;99.90;;;;;;5074180;28;20577;-65
2024/03/21 02:58:59;;;;;;;808.50;752.10;;;10.00;99.90;;;;;;5081036;28;20227;-65
2024/03/21 03:01:26;;;;;;;805.17;747.70;;;9.90;99.90;;;;;;5077274;28;20460;-65
2024/03/21 03:03:52;;;;;;;794.53;736.80;;;9.90;99.90;;;;;;5078875;28;20493;-65
2024/03/21 03:06:19;;;;;;;805.17;746.43;;;10.00;99.90;;;;;;5081954;28;20449;-65
2024/03/21 03:08:45;;;;;;;822.30;762.37;;;9.90;99.90;;;;;;5073301;28;20248;-65
2024/03/21 03:11:12;;;;;;;813.80;752.47;;;10.00;99.90;;;;;;5082212;28;20870;-65
2024/03/21 03:13:39;;;;;;;814.43;752.93;;;10.00;99.90;;;;;;5082196;28;20212;-65
2024/03/21 03:16:06;;;;;;;816.00;754.30;;;10.00;99.90;;;;;;5074161;28;20553;-65
2024/03/21 03:18:32;;;;;;;795.20;736.37;;;10.00;99.90;;;;;;5077573;28;20449;-65
2024/03/21 03:20:59;;;;;;;801.70;741.60;;;10.00;99.90;;;;;;5077525;28;20816;-65
2024/03/21 03:23:24;;;;;;;773.90;715.10;;;10.10;99.90;;;;;;5081767;28;20219;-65
2024/03/21 03:25:51;;;;;;;777.67;719.03;;;10.10;99.90;;;;;;5073211;28;21012;-65
2024/03/21 03:28:17;;;;;;;773.70;715.90;;;10.10;99.90;;;;;;5074832;28;20196;-64
2024/03/21 03:30:46;;;;;;;763.57;705.73;;;10.10;99.90;;;;;;5079580;28;20771;-65
2024/03/21 03:35:54;;;;;;;761.40;706.40;;;10.10;99.90;;;;;;5072816;28;20876;-65
2024/03/21 03:38:21;;;;;;;745.50;690.60;;;10.10;99.90;;;;;;5075058;28;20482;-64
2024/03/21 03:40:48;;;;;;;736.27;679.43;;;10.20;99.90;;;;;;5078740;28;20501;-65
2024/03/21 03:43:15;;;;;;;745.20;689.03;;;10.20;99.90;;;;;;5080943;28;20476;-65
2024/03/21 03:45:43;;;;;;;731.23;676.63;;;10.20;99.90;;;;;;5072843;28;20450;-65
2024/03/21 03:48:11;;;;;;;735.03;680.27;;;10.20;99.90;;;;;;5072194;28;20832;-64
2024/03/21 03:50:38;;;;;;;725.50;671.70;;;10.20;99.90;;;;;;5077607;28;20532;-65
2024/03/21 03:53:03;;;;;;;709.57;656.43;;;10.20;99.90;;;;;;5076160;28;20478;-64
2024/03/21 03:55:31;;;;;;;693.83;641.60;;;10.20;99.90;;;;;;5072697;28;20454;-65
2024/03/21 03:57:57;;;;;;;722.57;668.57;;;10.20;99.90;;;;;;5080672;28;20255;-65
2024/03/21 04:00:23;;;;;;;731.73;678.30;;;10.10;99.90;;;;;;5072456;28;20530;-65
2024/03/21 04:02:50;;;;;;;741.77;686.40;;;10.10;99.90;;;;;;5080497;28;20227;-65
2024/03/21 04:05:18;;;;;;;742.20;686.90;;;10.10;99.90;;;;;;5072543;28;20454;-65
2024/03/21 04:07:46;;;;;;;738.37;684.23;;;10.10;99.90;;;;;;5080461;28;20942;-64
2024/03/21 04:10:12;;;;;;;745.00;689.00;;;10.20;99.90;;;;;;5072345;28;20461;-65
2024/03/21 04:12:41;;;;;;;724.50;668.70;;;10.10;99.90;;;;;;5072386;28;20528;-65
2024/03/21 04:15:07;;;;;;;717.60;661.37;;;10.20;99.90;;;;;;5080901;28;20823;-65
2024/03/21 04:17:34;;;;;;;718.13;661.10;;;10.20;99.90;;;;;;5071768;28;20497;-65
2024/03/21 04:20:01;;;;;;;734.60;677.20;;;10.20;99.90;;;;;;5072314;28;20456;-65
2024/03/21 04:22:29;;;;;;;708.33;651.23;;;10.30;99.90;;;;;;5072019;28;20454;-65
2024/03/21 04:24:55;;;;;;;681.23;626.90;;;10.30;99.90;;;;;;5072171;28;20454;-65
2024/03/21 04:27:22;;;;;;;651.57;599.77;;;10.40;99.90;;;;;;5082508;28;20446;-65
2024/03/21 04:29:48;;;;;;;636.80;586.47;;;10.40;99.90;;;;;;5077379;28;20569;-65
2024/03/21 04:32:16;;;;;;;605.53;555.83;;;10.50;99.90;;;;;;5080710;28;20468;-65
2024/03/21 04:34:42;;;;;;;592.00;543.93;;;10.60;99.90;;;;;;5072527;28;20454;-64
2024/03/21 04:37:14;;;;;;;574.57;528.20;;;10.60;99.90;;;;;;5071621;28;20478;-65
2024/03/21 04:39:43;;;;;;;560.30;515.60;;;10.60;99.90;;;;;;5072103;28;20454;-65
2024/03/21 04:42:10;;;;;;;556.03;511.27;;;10.70;99.90;;;;;;5072871;28;20461;-64
2024/03/21 04:44:37;;;;;;;534.80;492.50;;;10.70;99.90;;;;;;5083759;28;20473;-65
2024/03/21 04:47:04;;;;;;;542.80;502.93;;;10.70;99.90;;;;;;5075271;28;20454;-63
2024/03/21 04:49:31;;;;;;;551.40;510.63;;;10.60;99.90;;;;;;5080448;28;20525;-65
2024/03/21 04:51:58;;;;;;;557.60;515.53;;;10.50;99.90;;;;;;5080875;28;20450;-65
2024/03/21 04:54:24;;;;;;;559.00;515.53;;;10.50;99.90;;;;;;5079533;28;20573;-65
2024/03/21 04:56:52;;;;;;;556.17;513.87;;;10.40;99.90;;;;;;5080343;28;20486;-65
2024/03/21 04:59:20;;;;;;;565.37;522.10;;;10.40;99.90;;;;;;5080022;28;20842;-65
2024/03/21 05:01:46;;;;;;;566.70;523.07;;;10.40;99.90;;;;;;5072061;28;20557;-64
2024/03/21 05:04:12;;;;;;;558.57;515.37;;;10.30;99.90;;;;;;5080001;28;20474;-65
2024/03/21 05:06:39;;;;;;;570.70;526.40;;;10.30;99.90;;;;;;5076989;28;20461;-65
2024/03/21 05:09:06;;;;;;;599.17;553.77;;;10.20;99.90;;;;;;5075719;28;20568;-65
2024/03/21 05:11:33;;;;;;;599.67;553.00;;;10.20;99.90;;;;;;5078592;28;20454;-64
2024/03/21 05:14:00;;;;;;;618.00;570.30;;;10.10;99.90;;;;;;5087640;28;20480;-65
2024/03/21 05:16:28;;;;;;;630.50;582.07;;;10.10;99.90;;;;;;5092262;28;20560;-65
2024/03/21 05:18:54;;;;;;;662.57;614.67;;;10.00;99.90;;;;;;5092189;28;20907;-65
2024/03/21 05:21:21;;;;;;;688.33;639.03;;;9.90;99.90;;;;;;5092749;28;20532;-64
2024/03/21 05:23:46;;;;;;;706.60;656.17;;;9.80;99.90;;;;;;5083527;28;20218;-65
2024/03/21 05:26:13;;;;;;;729.80;677.10;;;9.80;99.90;;;;;;5073702;28;20457;-65
2024/03/21 05:28:39;;;;;;;745.77;691.97;;;9.80;99.90;;;;;;5080054;28;20447;-64
2024/03/21 05:31:20;;;;;;;755.43;700.70;;;9.80;99.90;;;;;;5071574;28;20468;-65
2024/03/21 05:33:46;;;;;;;765.60;708.90;;;9.80;99.90;;;;;;5077603;28;20488;-65
2024/03/21 05:36:13;;;;;;;778.73;723.03;;;9.70;99.90;;;;;;5074085;28;20462;-65
2024/03/21 05:38:39;;;;;;;789.80;731.77;;;9.70;99.90;;;;;;5070923;28;20485;-65
2024/03/21 05:41:06;;;;;;;776.73;718.70;;;9.70;99.90;;;;;;5071659;28;20880;-65
2024/03/21 05:43:32;;;;;;;784.87;727.70;;;9.70;99.90;;;;;;5075563;28;20247;-65
2024/03/21 05:45:58;;;;;;;795.60;737.57;;;9.60;99.90;;;;;;5083362;28;20535;-65
2024/03/21 05:48:26;;;;;;;805.07;746.27;;;9.50;99.90;;;;;;5071576;28;20447;-65
2024/03/21 05:50:52;;;;;;;816.80;757.40;;;9.50;99.90;;;;;;5071573;28;20468;-65
2024/03/21 05:53:18;;;;;;;821.10;757.50;;;9.40;99.90;;;;;;5071170;28;20561;-65
2024/03/21 05:55:54;;;;;;;822.07;760.30;;;9.40;99.90;;;;;;5080404;28;20533;-65
2024/03/21 05:58:20;;;;;;;831.97;768.30;;;9.40;99.90;;;;;;5079412;28;20223;-65
2024/03/21 06:00:54;;;;;;;823.50;759.73;;;9.40;99.90;;;;;;5071342;28;20515;-65
2024/03/21 06:03:20;;;;;;;838.50;769.80;;;9.50;99.90;;;;;;5070986;28;20482;-65
2024/03/21 06:05:49;;;;;;;825.93;758.27;;;9.60;99.90;;;;;;5070910;28;20470;-65
2024/03/21 06:08:15;;;;;;;816.90;750.20;;;9.80;99.90;;;;;;5073309;28;20450;-65
2024/03/21 06:10:42;;;;;;;785.43;721.53;;;9.90;99.90;;;;;;5079723;28;20464;-64
2024/03/21 06:13:08;;;;;;;757.97;697.10;;;10.00;99.90;;;;;;5077268;28;20219;-65
2024/03/21 06:15:34;;;;;;;711.47;654.47;;;10.10;99.90;;;;;;5082882;28;20460;-65
2024/03/21 06:18:00;;;;;;;607.93;559.00;;;10.20;99.90;;;;;;5074080;28;20573;-65
2024/03/21 06:20:27;;;;;;;547.37;500.07;;;10.30;99.90;;;;;;5082527;28;20461;-65
2024/03/21 06:22:54;;;;;;;520.83;478.90;;;10.30;99.90;;;;;;5074061;28;20217;-64
2024/03/21 06:25:21;;;;;;;511.87;471.90;;;10.30;99.90;;;;;;5076516;28;20458;-65
2024/03/21 06:27:49;;;;;;;509.83;470.57;;;10.30;99.90;;;;;;5085944;28;20453;-65
2024/03/21 06:30:16;;;;;;;504.87;465.37;;;10.30;99.90;;;;;;5076225;28;20473;-65
2024/03/21 06:32:42;;;;;;;486.87;448.00;;;10.30;99.90;;;;;;5074009;28;20478;-65
2024/03/21 06:35:10;;;;;;;497.77;461.37;;;10.40;99.90;;;;;;5074093;28;20450;-65
2024/03/21 06:37:35;;;;;;;504.27;469.00;;;10.40;99.90;;;;;;5073841;28;20219;-65
2024/03/21 06:40:06;;;;;;;509.20;473.00;;;10.50;99.90;;;;;;5073845;28;20932;-65
2024/03/21 06:42:33;;;;;;;494.23;459.50;;;10.60;99.90;;;;;;5074174;28;20261;-65
2024/03/21 06:45:00;;;;;;;498.00;462.70;;;10.70;99.90;;;;;;5073972;28;20473;-65
2024/03/21 06:47:26;;;;;;;500.57;464.40;;;10.80;99.90;;;;;;5073251;28;20532;-66
2024/03/21 06:49:56;;;;;;;496.03;463.03;;;11.00;99.90;;;;;;5074289;28;20541;-65
2024/03/21 06:52:21;;;;;;;495.30;461.90;;;11.10;99.90;;;;;;5073785;28;20446;-66
2024/03/21 06:54:48;;;;;;;500.93;469.33;;;11.20;99.90;;;;;;5073785;28;21038;-65
2024/03/21 06:57:15;;;;;;;481.63;453.10;;;11.30;99.90;;;;;;5073349;28;20220;-65
2024/03/21 06:59:42;;;;;;;489.67;460.30;;;11.30;99.90;;;;;;5073499;28;20916;-65
2024/03/21 07:02:08;;;;;;;474.17;447.93;;;11.30;99.90;;;;;;5073888;28;20454;-65
2024/03/21 07:04:36;;;;;;;460.53;435.83;;;11.30;99.90;;;;;;5074180;28;20599;-66
2024/03/21 07:07:02;;;;;;;472.80;445.80;;;11.20;99.90;;;;;;5073970;28;20450;-65
2024/03/21 07:09:28;;;;;;;457.43;433.40;;;11.30;99.90;;;;;;5082853;28;20454;-66
2024/03/21 07:11:55;;;;;;;432.67;409.37;;;11.20;99.90;;;;;;5072957;28;20200;-66
2024/03/21 07:14:22;;;;;;;442.77;419.73;;;11.10;99.90;;;;;;5072768;28;20474;-66
2024/03/21 07:16:49;;;;;;;447.60;424.17;;;11.20;99.90;;;;;;5072880;28;20527;-64
2024/03/21 07:19:15;;;;;;;458.30;433.60;;;11.20;99.90;;;;;;5081398;28;20453;-66
2024/03/21 07:21:42;;;;;;;465.70;440.60;;;11.10;99.90;;;;;;5073522;28;21024;-65
2024/03/21 07:24:07;;;;;;;504.43;475.40;;;11.10;99.90;;;;;;5073181;28;20660;-65
2024/03/21 07:26:34;;;;;;;483.30;456.00;;;11.10;99.90;;;;;;5073027;28;20500;-65
2024/03/21 07:29:00;;;;;;;469.23;443.93;;;11.10;99.90;;;;;;5072863;28;20656;-65
2024/03/21 07:31:29;;;;;;;444.83;421.27;;;11.00;99.90;;;;;;5081518;28;20473;-66
2024/03/21 07:33:55;;;;;;;471.30;446.20;;;11.10;99.90;;;;;;5072888;28;20220;-65
2024/03/21 07:36:21;;;;;;;475.60;450.00;;;11.00;99.90;;;;;;5081288;28;20838;-65
2024/03/21 07:38:47;;;;;;;470.00;444.30;;;11.00;99.90;;;;;;5072397;28;20252;-65
2024/03/21 07:41:16;;;;;;;478.03;451.57;;;11.00;99.90;;;;;;5081121;28;21082;-65
2024/03/21 07:43:41;;;;;;;517.10;486.80;;;11.00;99.90;;;;;;5072041;28;20220;-65
2024/03/21 07:46:08;;;;;;;505.83;477.00;;;10.90;99.90;;;;;;5081291;28;20536;-65
2024/03/21 07:48:38;;;;;;;462.50;437.30;;;10.90;99.90;;;;;;5072700;28;20192;-65
2024/03/21 07:51:05;;;;;;;423.27;401.33;;;10.90;99.90;;;;;;5072774;28;20810;-65
2024/03/21 07:53:33;;;;;;;465.63;440.63;;;10.90;99.90;;;;;;5076464;28;20469;-66
2024/03/21 07:56:00;;;;;;;446.17;422.57;;;10.90;99.90;;;;;;5076528;28;20595;-65
2024/03/21 07:58:26;;;;;;;427.27;405.77;;;10.90;99.90;;;;;;5075455;28;20488;-65
2024/03/21 08:00:53;;;;;;;414.17;393.97;;;11.00;99.90;;;;;;5076041;28;20450;-66
2024/03/21 08:03:22;;;;;;;394.63;375.53;;;11.00;99.90;;;;;;5073527;28;20224;-65
2024/03/21 08:05:54;;;;;;;377.43;359.00;;;11.10;99.90;;;;;;5077426;28;20961;-66
2024/03/21 08:08:20;;;;;;;393.93;374.87;;;11.20;99.90;;;;;;5071149;28;20446;-64
2024/03/21 08:10:48;;;;;;;368.97;351.60;;;11.20;99.90;;;;;;5079161;28;20460;-66
2024/03/21 08:13:14;;;;;;;309.67;295.10;;;11.30;99.90;;;;;;5071225;28;20266;-65
2024/03/21 08:15:41;;;;;;;308.20;294.00;;;11.30;99.90;;;;;;5071820;28;20946;-65
2024/03/21 08:18:07;;;;;;;320.53;305.87;;;11.30;99.90;;;;;;5078818;28;20226;-67
2024/03/21 08:20:34;;;;;;;211.13;201.43;;;11.30;99.90;;;;;;5070820;28;20462;-66
2024/03/21 08:23:01;;;;;;;231.63;221.93;;;11.20;99.90;;;;;;5077886;28;20220;-65
2024/03/21 08:25:28;;;;;;;210.27;200.90;;;11.20;99.90;;;;;;5078846;28;20571;-66
2024/03/21 08:27:54;;;;;;;187.77;179.63;;;11.10;99.90;;;;;;5078531;28;20450;-65
2024/03/21 08:30:24;;;;;;;185.50;176.30;;;11.10;99.90;;;;;;5080181;28;20848;-66
2024/03/21 08:32:51;;;;;;;182.67;173.97;;;11.20;99.90;;;;;;5082322;28;20219;-67
2024/03/21 08:35:25;;;;;;;163.23;155.17;;;11.20;99.90;;;;;;5080656;28;20439;-68
2024/03/21 08:37:51;;;;;;;150.67;143.37;;;11.10;99.90;;;;;;5083585;28;21022;-66
2024/03/21 08:40:19;;;;;;;156.17;148.60;;;11.20;99.90;;;;;;5082216;28;20450;-66
2024/03/21 08:42:46;;;;;;;136.47;129.83;;;11.30;99.90;;;;;;5071944;28;20326;-66
2024/03/21 08:45:12;;;;;;;139.17;132.80;;;11.20;99.90;;;;;;5080248;28;20502;-66
2024/03/21 08:47:39;;;;;;;150.13;143.33;;;11.30;99.90;;;;;;5071240;28;20449;-65
2024/03/21 08:50:06;;;;;;;85.17;79.97;;;11.30;99.90;;;;;;5071663;28;20456;-65
2024/03/21 08:52:32;;;;;;;90.10;84.90;;;11.30;99.90;;;;;;5072129;28;20461;-65
2024/03/21 08:54:58;;;;;;;65.77;61.13;;;11.40;99.90;;;;;;5076484;28;20472;-65
2024/03/21 08:57:26;;;;;;;56.03;51.70;;;11.40;99.90;;;;;;5073129;28;20964;-65
2024/03/21 08:59:52;;;;;;;57.03;53.53;;;11.30;99.90;;;;;;5076775;28;20215;-66
2024/03/21 09:02:19;;;;;;;57.67;53.50;;;11.30;99.90;;;;;;5071533;28;20454;-63
2024/03/21 09:04:45;;;;;;;64.27;59.57;;;11.30;99.90;;;;;;5071548;28;20196;-64
2024/03/21 09:07:12;;;;;;;47.90;44.10;;;11.40;99.90;;;;;;5071879;28;20964;-66
2024/03/21 09:09:38;;;;;;;47.37;43.87;;;11.50;99.90;;;;;;5078905;28;20457;-66
2024/03/21 09:12:05;;;;;;;42.50;39.20;;;11.50;99.90;;;;;;5079148;28;20883;-65
2024/03/21 09:14:33;;;;;;;34.33;31.83;;;11.70;99.90;;;;;;5075735;28;20658;-65
2024/03/21 09:16:59;;;;;;;29.30;26.00;;;11.90;99.90;;;;;;5083043;28;20533;-65
2024/03/21 09:19:25;;;;;;;23.23;17.37;;;12.00;99.90;;;;;;5071642;28;20481;-66
2024/03/21 09:21:54;;;;;;;16.85;12.25;;;12.00;99.90;;;;;;5071869;28;20453;-65
2024/03/21 09:24:20;;;;;;;23.50;17.20;;;12.10;99.90;;;;;;5079487;28;20246;-65
2024/03/21 09:26:47;;;;;;;21.20;19.00;;;12.00;99.90;;;;;;5078431;28;20477;-66
2024/03/21 09:29:13;;;;;;;19.30;14.13;;;12.20;99.90;;;;;;5081960;28;20830;-65
2024/03/21 09:31:41;;;;;;;18.20;14.37;;;12.20;99.90;;;;;;5076178;28;20462;-65
2024/03/21 09:34:08;;;;;;;20.13;16.00;;;12.20;99.90;;;;;;5081319;28;20209;-65
2024/03/21 09:36:35;;;;;;;15.90;14.17;;;12.50;99.90;;;;;;5075198;28;20968;-65
2024/03/21 09:39:02;;;;;;;22.60;15.43;;;12.50;99.90;;;;;;5074848;28;20478;-64
2024/03/21 09:41:32;;;;;;;22.50;16.57;;;12.70;99.90;;;;;;5072866;28;20464;-65
2024/03/21 09:43:59;;;;;;;25.17;15.10;;;12.90;99.90;;;;;;5074662;28;20557;-65
2024/03/21 09:46:30;;;;;;;21.67;14.37;;;13.30;99.00;;;;;;5080229;28;20454;-65
2024/03/21 09:48:57;;;;;;;18.47;12.43;;;13.80;95.90;;;;;;5081620;28;20929;-66
2024/03/21 09:51:27;;;;;;;16.20;11.00;;;13.90;92.60;;;;;;5078453;28;20576;-65
2024/03/21 09:53:54;;;;;;;18.65;13.65;;;13.60;92.50;;;;;;5085897;28;20476;-65
2024/03/21 09:56:21;;;;;;;20.33;13.30;;;13.60;92.40;;;;;;5083352;28;20184;-65
2024/03/21 09:58:47;;;;;;;21.40;13.00;;;13.50;94.40;;;;;;5078510;28;21018;-65
2024/03/21 10:01:20;;;;;;;19.13;11.73;;;13.60;92.80;;;;;;5083531;28;20884;-65
2024/03/21 10:03:51;;;;;;;22.17;11.37;;;13.40;92.40;;;;;;5084763;28;20497;-64
2024/03/21 10:06:19;;;;;;;18.20;11.70;;;13.20;94.00;;;;;;5085164;28;20449;-65
2024/03/21 10:08:45;;;;;;;19.83;12.57;;;13.20;94.10;;;;;;5082947;28;20446;-65
2024/03/21 10:11:12;;;;;;;19.60;13.70;;;13.20;92.30;;;;;;5082982;28;20556;-67
2024/03/21 10:13:41;;;;;;;18.25;13.25;;;13.30;94.60;;;;;;5076116;28;20865;-65
2024/03/21 10:16:14;;;;;;;16.27;12.13;;;13.30;92.40;;;;;;5081190;28;20646;-65
2024/03/21 10:18:40;;;;;;;13.30;10.10;;;13.20;92.30;;;;;;5093956;28;20477;-65
2024/03/21 10:21:14;;;;;;;15.00;9.40;;;13.30;92.40;;;;;;5085604;28;20540;-65
2024/03/21 10:23:41;;;;;;;13.40;9.90;;;13.30;92.30;;;;;;5080755;28;20470;-65
2024/03/21 10:26:13;;;;;;;12.23;8.90;;;13.40;94.20;;;;;;5076728;28;21031;-65
2024/03/21 10:28:40;;;;;;;10.37;7.83;;;13.40;92.40;;;;;;5074720;28;20493;-64
2024/03/21 10:31:12;;;;;;;11.30;7.90;;;13.50;92.40;;;;;;5086299;28;20458;-65
2024/03/21 10:33:39;;;;;;;12.60;7.57;;;13.60;92.40;;;;;;5081893;28;20493;-65
2024/03/21 10:36:06;;;;;;;12.47;6.17;;;13.60;92.40;;;;;;5099104;28;20540;-64
2024/03/21 10:38:32;;;;;;;9.73;6.40;;;13.60;85.00;;;;;;5077114;28;21039;-65
2024/03/21 10:41:18;;;;;;;12.60;7.20;;;13.70;80.30;;;;;;5078145;28;20458;-65
2024/03/21 10:43:49;;;;;;;9.87;6.53;;;13.80;80.40;;;;;;5080780;28;20211;-66
2024/03/21 10:46:16;;;;;;;10.30;6.40;;;14.10;80.70;;;;;;5073670;28;20453;-65
2024/03/21 10:48:43;;;;;;;12.30;6.23;;;13.90;81.30;;;;;;5073792;28;20537;-65
2024/03/21 10:51:11;;;;;;;8.00;5.57;;;13.90;80.50;;;;;;5073595;28;20454;-65
2024/03/21 10:53:37;;;;;;;9.10;5.77;;;13.60;80.20;;;;;;5072650;28;20851;-65
2024/03/21 10:56:08;;;;;;;9.57;6.60;;;13.90;80.50;;;;;;5081277;28;20881;-65
2024/03/21 10:58:41;;;;;;;7.60;4.87;;;14.30;80.80;;;;;;5082573;28;20556;-65
2024/03/21 11:01:09;;;;;;;8.07;5.50;;;14.80;79.90;;;;;;5083323;28;20966;-64
2024/03/21 11:03:47;;;;;;;8.60;5.87;;;14.70;65.60;;;;;;5084039;28;20466;-65
2024/03/21 11:06:14;;;;;;;10.43;6.03;;;14.30;64.90;;;;;;5083164;28;20544;-66
2024/03/21 11:08:51;;;;;;;9.30;5.37;;;13.80;64.40;;;;;;5081120;28;20930;-65
2024/03/21 11:11:19;;;;;;;9.77;6.97;;;13.80;72.50;;;;;;5083917;28;20477;-65
2024/03/21 11:13:46;;;;;;;8.77;5.27;;;13.60;78.50;;;;;;5085273;28;20475;-66
2024/03/21 11:16:13;;;;;;;9.13;4.80;;;13.60;66.30;;;;;;5084242;28;21006;-65
2024/03/21 11:18:40;;;;;;;8.57;5.37;;;13.60;80.20;;;;;;5084971;28;20475;-65
2024/03/21 11:21:08;;;;;;;11.17;6.03;;;13.70;72.40;;;;;;5082474;28;20720;-65
2024/03/21 11:23:34;;;;;;;7.73;5.20;;;13.80;65.00;;;;;;5081524;28;20845;-66
2024/03/21 11:26:01;;;;;;;9.30;5.00;;;14.00;67.90;;;;;;5081774;28;20450;-65
2024/03/21 11:28:28;;;;;;;9.53;6.00;;;13.90;71.20;;;;;;5084384;28;20445;-66
2024/03/21 11:30:55;;;;;;;9.07;6.13;;;14.20;72.40;;;;;;5078837;28;20492;-65
2024/03/21 11:33:21;;;;;;;9.10;5.20;;;14.30;64.90;;;;;;5083453;28;20985;-65
2024/03/21 11:35:48;;;;;;;10.87;5.27;;;14.30;64.90;;;;;;5085057;28;20454;-65
2024/03/21 11:38:14;;;;;;;9.27;6.73;;;14.50;65.10;;;;;;5083258;28;20215;-65
2024/03/21 11:40:41;;;;;;;8.50;4.80;;;14.60;65.20;;;;;;5080777;28;20454;-66
2024/03/21 11:43:08;;;;;;;11.20;6.83;;;14.50;65.20;;;;;;5081558;28;20490;-64
2024/03/21 11:45:37;;;;;;;19.63;7.47;;;14.60;65.20;;;;;;5084900;28;20510;-65
2024/03/21 11:48:07;;;;;;;10.10;6.23;;;14.90;65.40;;;;;;5084676;28;20441;-65
2024/03/21 11:50:34;;;;;;;11.70;7.37;;;14.60;65.20;;;;;;5077696;28;20473;-65
2024/03/21 11:53:00;;;;;;;11.10;6.30;;;14.30;64.90;;;;;;5083450;28;20458;-66
2024/03/21 11:55:27;;;;;;;11.00;7.20;;;14.00;64.70;;;;;;5084071;28;20456;-65
2024/03/21 11:57:54;;;;;;;12.90;7.23;;;13.70;64.40;;;;;;5079307;28;20453;-65
2024/03/21 12:00:21;;;;;;;10.73;7.63;;;13.80;72.50;;;;;;5082986;28;20461;-65
2024/03/21 12:02:50;;;;;;;10.70;7.70;;;13.90;69.00;;;;;;5088396;28;20553;-66
2024/03/21 12:05:17;;;;;;;10.63;6.90;;;13.80;64.40;;;;;;5081926;28;20457;-65
2024/03/21 12:07:43;;;;;;;11.03;7.00;;;13.90;64.50;;;;;;5072119;28;20454;-67
2024/03/21 12:10:10;;;;;;;10.23;7.10;;;14.30;64.80;;;;;;5081029;28;20441;-65
2024/03/21 12:12:36;;;;;;;9.07;5.97;;;14.20;64.80;;;;;;5081181;28;20196;-66
2024/03/21 12:15:04;;;;;;;11.47;7.00;;;13.70;64.20;;;;;;5082351;28;20450;-66
2024/03/21 12:17:30;;;;;;;10.47;6.83;;;14.20;64.80;;;;;;5077193;28;20441;-66
2024/03/21 12:19:59;;;;;;;12.93;6.80;;;14.10;64.60;;;;;;5077874;28;20473;-66
2024/03/21 12:22:26;;;;;;;8.27;5.50;;;14.60;58.00;;;;;;5084156;28;20511;-66
2024/03/21 12:24:53;;;;;;;11.67;8.30;;;14.30;56.30;;;;;;5082787;28;20452;-65